Terminal Aerodrome Forecast
Issued by NWS New Orleans/Baton Rouge, LA

Home | Current Version | Previous Version | Text Only | Print | Product List | Glossary On
Versions: 1 2 3 4 5 6 7 8 9 10 11 12 13 14 15 16 17 18 19 20 21
000
FTUS44 KLIX 191132
TAFBTR
TAF
KBTR 191132Z 1912/2012 23004KT P6SM SKC
     FM191500 24007KT P6SM BKN040
     FM192000 24009KT P6SM SCT150
     FM200000 21006KT P6SM SCT250
      TEMPO 2008/2012 5SM BR BKN020=

USA.gov is the U.S. government's official web portal to all federal, state and local government web resources and services.